Pine Grove Mills, Pennsylvania
Current Conditions -  °F | °C
As of 1:55 AM on Thursday 23 Oct 2014 (Local Time) from KUNV Reporting Station
Overcast Overcast  
Wind Chill: 42°   Ceiling: 1700
Heat Index: 47°   Visibility: 10mi
Dew Point: 41°   Wind: 14mph
Humidity: 79%   Direction: 360°N
Pressure: 30"   Gusts: 20mph
Location:  40.73°N, 77.88°W
Report Text: KUNV 230555Z AUTO 36012G17KT 10SM OVC017 09/05 A3000 RMK AO2 T00850050 10085 20080
Loading
Personal Weather Stations






























Interactive Weather Map
Tropical Storm Tracking
New forecast layout! Learn more

10-Day Weather Forecast

Advertisements
Track Severe Weather on mobile